Amherst, TX

2:41 AM CDT on July 29, 2016 (GMT -0500)
WT_Meso | | Change Station

Elev 3646 ft 34.02 °N, 102.40 °W | Updated 36 minutes ago

Clear
Clear
73 °F
Feels Like 75 °F
N
8
Wind Variable Wind from South
Gusts 10.0 mph

Today
High -- | Low -- °F
--% Chance of Precip.
Yesterday
High -- | Low -- °F
Precip. -- in
Pressure 30.07 in
Visibility 10.0 miles
Clouds Clear
Heat Index 75 °F
Dew Point 61 °F
Humidity 68%
Rainfall in
Snow Depth Not available.
6:59 AM 8:52 PM
Waning Crescent, 24% visible
METAR KPVW 290735Z AUTO 21005KT 10SM CLR 21/17 A3007 RMK AO2 T02120173
Pressure 30.07 in
Visibility 10.0 miles
Clouds Clear
Heat Index 75 °F
Dew Point 61 °F
Humidity 68%
Rainfall in
Snow Depth Not available.
6:59 AM 8:52 PM
Waning Crescent, 24% visible
METAR KPVW 290735Z AUTO 21005KT 10SM CLR 21/17 A3007 RMK AO2 T02120173

10-Day Weather Forecast

Almanac

Astronomy

Jul. 29, 2016 Rise Set
Actual Time
Civil Twilight
Nautical Twilight
Astronomical Twilight
Moon
Length of Visible Light
Length of Day
Tomorrow will be .
, % of the Moon is Illuminated

Today's Extremes

State Highs State Lows

Community

WunderPhotos

Upload Photos

1,928,300 photos uploaded!

WunderBlog® & News

Nearby

Air Quality

  Air Quality AQ Index Pollutant
Not available.

Snow Depth

Station Depth Elevation

Earthquake Activity

City Distance Mag. Time & Date
Minimum magnitude displayed is 2.5.

Coastal Water Temperatures

Place Temperature

Stations

Nearby Weather Stations

Station Location Temp. Windchill Dew Point Humidity Wind Precip. Elev Updated Type
                   

Watches & Warnings

There are currently no watches in effect.